Terminal Aerodrome Forecast
Issued by NWS Upton, NY

Home | Current Version | Previous Version | Text Only | Print | Product List | Glossary On
Versions: 1 2 3 4 5 6 7 8 9 10 11 12 13 14 15 16 17 18 19 20 21 22 23 24 25 26 27 28 29 30 31 32 33
000
FTUS41 KOKX 311121
TAFJFK
TAF
KJFK 311121Z 3112/0118 24009KT P6SM BKN120 BKN250
     FM311600 24012KT P6SM FEW050 BKN250
     FM311900 22016G21KT P6SM SCT050 BKN250
     FM010000 26010KT P6SM FEW050 SCT250
     FM010900 30006KT P6SM FEW050
     FM011500 02006KT P6SM FEW050=

USA.gov is the U.S. government's official web portal to all federal, state and local government web resources and services.